sensor_id;sensor_type;location;lat;lon;timestamp;temperature;humidity
45785;DHT22;31489;51.404;5.474;2023-07-30T00:02:18;20.60;68.80
45785;DHT22;31489;51.404;5.474;2023-07-30T00:04:45;20.60;68.90
45785;DHT22;31489;51.404;5.474;2023-07-30T00:07:11;20.60;68.90
45785;DHT22;31489;51.404;5.474;2023-07-30T00:09:38;20.50;68.90
45785;DHT22;31489;51.404;5.474;2023-07-30T00:12:08;20.50;69.00
45785;DHT22;31489;51.404;5.474;2023-07-30T00:14:34;20.50;69.20
45785;DHT22;31489;51.404;5.474;2023-07-30T00:17:00;20.50;69.20
45785;DHT22;31489;51.404;5.474;2023-07-30T00:19:26;20.40;69.70
45785;DHT22;31489;51.404;5.474;2023-07-30T00:21:52;20.40;69.70
45785;DHT22;31489;51.404;5.474;2023-07-30T00:24:18;20.40;69.90
45785;DHT22;31489;51.404;5.474;2023-07-30T00:26:43;20.40;69.70
45785;DHT22;31489;51.404;5.474;2023-07-30T00:29:09;20.30;69.70
45785;DHT22;31489;51.404;5.474;2023-07-30T00:31:35;20.30;69.70
45785;DHT22;31489;51.404;5.474;2023-07-30T00:34:01;20.30;69.70
45785;DHT22;31489;51.404;5.474;2023-07-30T00:36:26;20.30;69.90
45785;DHT22;31489;51.404;5.474;2023-07-30T00:38:52;20.20;69.70
45785;DHT22;31489;51.404;5.474;2023-07-30T00:41:18;20.20;69.70
45785;DHT22;31489;51.404;5.474;2023-07-30T00:43:43;20.20;69.70
45785;DHT22;31489;51.404;5.474;2023-07-30T00:46:09;20.20;69.70
45785;DHT22;31489;51.404;5.474;2023-07-30T00:48:36;20.10;69.80
45785;DHT22;31489;51.404;5.474;2023-07-30T00:51:02;20.10;69.80
45785;DHT22;31489;51.404;5.474;2023-07-30T00:53:28;20.10;69.90
45785;DHT22;31489;51.404;5.474;2023-07-30T00:55:54;20.00;70.00
45785;DHT22;31489;51.404;5.474;2023-07-30T00:58:21;20.00;70.20
45785;DHT22;31489;51.404;5.474;2023-07-30T01:00:47;20.00;70.10
45785;DHT22;31489;51.404;5.474;2023-07-30T01:03:13;19.90;70.20
45785;DHT22;31489;51.404;5.474;2023-07-30T01:05:39;19.90;70.20
45785;DHT22;31489;51.404;5.474;2023-07-30T01:08:04;19.90;70.30
45785;DHT22;31489;51.404;5.474;2023-07-30T01:10:32;19.90;70.50
45785;DHT22;31489;51.404;5.474;2023-07-30T01:13:01;19.80;70.40
45785;DHT22;31489;51.404;5.474;2023-07-30T01:15:28;19.90;70.60
45785;DHT22;31489;51.404;5.474;2023-07-30T01:17:54;19.80;70.70
45785;DHT22;31489;51.404;5.474;2023-07-30T01:20:21;19.80;70.70
45785;DHT22;31489;51.404;5.474;2023-07-30T01:22:47;19.80;70.80
45785;DHT22;31489;51.404;5.474;2023-07-30T01:25:14;19.80;70.90
45785;DHT22;31489;51.404;5.474;2023-07-30T01:27:47;19.80;71.00
45785;DHT22;31489;51.404;5.474;2023-07-30T01:30:25;19.70;71.00
45785;DHT22;31489;51.404;5.474;2023-07-30T01:32:52;19.70;71.10
45785;DHT22;31489;51.404;5.474;2023-07-30T01:35:24;19.70;71.10
45785;DHT22;31489;51.404;5.474;2023-07-30T01:37:51;19.70;71.10
45785;DHT22;31489;51.404;5.474;2023-07-30T01:40:18;19.70;71.20
45785;DHT22;31489;51.404;5.474;2023-07-30T01:42:43;19.70;71.20
45785;DHT22;31489;51.404;5.474;2023-07-30T01:45:09;19.70;71.20
45785;DHT22;31489;51.404;5.474;2023-07-30T01:47:35;19.70;71.30
45785;DHT22;31489;51.404;5.474;2023-07-30T01:50:01;19.70;71.40
45785;DHT22;31489;51.404;5.474;2023-07-30T01:52:26;19.70;71.40
45785;DHT22;31489;51.404;5.474;2023-07-30T01:54:52;19.60;71.40
45785;DHT22;31489;51.404;5.474;2023-07-30T01:57:18;19.60;71.50
45785;DHT22;31489;51.404;5.474;2023-07-30T01:59:43;19.60;71.60
45785;DHT22;31489;51.404;5.474;2023-07-30T02:02:09;19.60;71.80
45785;DHT22;31489;51.404;5.474;2023-07-30T02:04:35;19.50;71.90
45785;DHT22;31489;51.404;5.474;2023-07-30T02:07:00;19.50;72.00
45785;DHT22;31489;51.404;5.474;2023-07-30T02:09:26;19.40;72.10
45785;DHT22;31489;51.404;5.474;2023-07-30T02:11:51;19.40;72.20
45785;DHT22;31489;51.404;5.474;2023-07-30T02:14:20;19.40;72.40
45785;DHT22;31489;51.404;5.474;2023-07-30T02:16:46;19.40;72.50
45785;DHT22;31489;51.404;5.474;2023-07-30T02:19:11;19.40;72.60
45785;DHT22;31489;51.404;5.474;2023-07-30T02:21:37;19.30;72.60
45785;DHT22;31489;51.404;5.474;2023-07-30T02:24:08;19.30;72.70
45785;DHT22;31489;51.404;5.474;2023-07-30T02:26:35;19.30;72.80
45785;DHT22;31489;51.404;5.474;2023-07-30T02:29:01;19.30;72.90
45785;DHT22;31489;51.404;5.474;2023-07-30T02:31:27;19.30;73.10
45785;DHT22;31489;51.404;5.474;2023-07-30T02:33:53;19.30;73.20
45785;DHT22;31489;51.404;5.474;2023-07-30T02:36:18;19.30;73.30
45785;DHT22;31489;51.404;5.474;2023-07-30T02:38:44;19.30;73.30
45785;DHT22;31489;51.404;5.474;2023-07-30T02:41:10;19.30;73.30
45785;DHT22;31489;51.404;5.474;2023-07-30T02:43:35;19.30;73.30
45785;DHT22;31489;51.404;5.474;2023-07-30T02:46:01;19.30;73.30
45785;DHT22;31489;51.404;5.474;2023-07-30T02:48:26;19.30;73.40
45785;DHT22;31489;51.404;5.474;2023-07-30T02:50:52;19.30;73.50
45785;DHT22;31489;51.404;5.474;2023-07-30T02:53:18;19.30;73.60
45785;DHT22;31489;51.404;5.474;2023-07-30T02:55:43;19.30;73.60
45785;DHT22;31489;51.404;5.474;2023-07-30T02:58:09;19.30;73.80
45785;DHT22;31489;51.404;5.474;2023-07-30T03:00:35;19.30;73.80
45785;DHT22;31489;51.404;5.474;2023-07-30T03:03:01;19.30;73.90
45785;DHT22;31489;51.404;5.474;2023-07-30T03:05:27;19.30;73.90
45785;DHT22;31489;51.404;5.474;2023-07-30T03:07:53;19.40;74.00
45785;DHT22;31489;51.404;5.474;2023-07-30T03:10:18;19.40;73.90
45785;DHT22;31489;51.404;5.474;2023-07-30T03:12:44;19.40;74.10
45785;DHT22;31489;51.404;5.474;2023-07-30T03:15:10;19.40;74.10
45785;DHT22;31489;51.404;5.474;2023-07-30T03:17:35;19.40;74.10
45785;DHT22;31489;51.404;5.474;2023-07-30T03:20:02;19.40;74.20
45785;DHT22;31489;51.404;5.474;2023-07-30T03:22:28;19.40;74.20
45785;DHT22;31489;51.404;5.474;2023-07-30T03:24:54;19.30;74.30
45785;DHT22;31489;51.404;5.474;2023-07-30T03:27:19;19.30;74.40
45785;DHT22;31489;51.404;5.474;2023-07-30T03:29:45;19.30;74.40
45785;DHT22;31489;51.404;5.474;2023-07-30T03:32:10;19.30;74.40
45785;DHT22;31489;51.404;5.474;2023-07-30T03:34:36;19.30;74.60
45785;DHT22;31489;51.404;5.474;2023-07-30T03:37:02;19.30;74.60
45785;DHT22;31489;51.404;5.474;2023-07-30T03:39:27;19.30;74.60
45785;DHT22;31489;51.404;5.474;2023-07-30T03:41:53;19.30;74.60
45785;DHT22;31489;51.404;5.474;2023-07-30T03:44:19;19.30;74.70
45785;DHT22;31489;51.404;5.474;2023-07-30T03:46:45;19.40;74.80
45785;DHT22;31489;51.404;5.474;2023-07-30T03:49:11;19.30;74.80
45785;DHT22;31489;51.404;5.474;2023-07-30T03:51:37;19.30;75.00
45785;DHT22;31489;51.404;5.474;2023-07-30T03:54:04;19.40;75.00
45785;DHT22;31489;51.404;5.474;2023-07-30T03:56:30;19.40;74.90
45785;DHT22;31489;51.404;5.474;2023-07-30T03:58:55;19.40;75.10
45785;DHT22;31489;51.404;5.474;2023-07-30T04:01:21;19.40;75.10
45785;DHT22;31489;51.404;5.474;2023-07-30T04:03:47;19.40;75.10
45785;DHT22;31489;51.404;5.474;2023-07-30T04:06:12;19.40;75.10
45785;DHT22;31489;51.404;5.474;2023-07-30T04:08:38;19.40;75.20
45785;DHT22;31489;51.404;5.474;2023-07-30T04:11:04;19.40;75.30
45785;DHT22;31489;51.404;5.474;2023-07-30T04:13:30;19.40;75.30
45785;DHT22;31489;51.404;5.474;2023-07-30T04:15:55;19.40;75.40
45785;DHT22;31489;51.404;5.474;2023-07-30T04:18:21;19.40;75.40
45785;DHT22;31489;51.404;5.474;2023-07-30T04:20:48;19.40;75.50
45785;DHT22;31489;51.404;5.474;2023-07-30T04:23:14;19.40;75.50
45785;DHT22;31489;51.404;5.474;2023-07-30T04:25:39;19.40;75.50
45785;DHT22;31489;51.404;5.474;2023-07-30T04:28:05;19.40;75.60
45785;DHT22;31489;51.404;5.474;2023-07-30T04:30:32;19.50;75.70
45785;DHT22;31489;51.404;5.474;2023-07-30T04:32:57;19.50;75.60
45785;DHT22;31489;51.404;5.474;2023-07-30T04:35:23;19.50;75.60
45785;DHT22;31489;51.404;5.474;2023-07-30T04:37:49;19.50;75.60
45785;DHT22;31489;51.404;5.474;2023-07-30T04:40:14;19.50;75.70
45785;DHT22;31489;51.404;5.474;2023-07-30T04:42:40;19.50;75.70
45785;DHT22;31489;51.404;5.474;2023-07-30T04:45:06;19.50;75.70
45785;DHT22;31489;51.404;5.474;2023-07-30T04:47:32;19.50;75.80
45785;DHT22;31489;51.404;5.474;2023-07-30T04:49:57;19.50;75.80
45785;DHT22;31489;51.404;5.474;2023-07-30T04:52:23;19.50;75.90
45785;DHT22;31489;51.404;5.474;2023-07-30T04:54:49;19.50;75.90
45785;DHT22;31489;51.404;5.474;2023-07-30T04:57:14;19.50;76.00
45785;DHT22;31489;51.404;5.474;2023-07-30T04:59:40;19.60;76.30
45785;DHT22;31489;51.404;5.474;2023-07-30T05:02:06;19.60;76.20
45785;DHT22;31489;51.404;5.474;2023-07-30T05:04:32;19.60;76.10
45785;DHT22;31489;51.404;5.474;2023-07-30T05:06:58;19.70;76.10
45785;DHT22;31489;51.404;5.474;2023-07-30T05:09:23;19.70;76.10
45785;DHT22;31489;51.404;5.474;2023-07-30T05:11:49;19.70;76.00
45785;DHT22;31489;51.404;5.474;2023-07-30T05:14:15;19.70;76.00
45785;DHT22;31489;51.404;5.474;2023-07-30T05:16:40;19.70;76.00
45785;DHT22;31489;51.404;5.474;2023-07-30T05:19:06;19.70;76.00
45785;DHT22;31489;51.404;5.474;2023-07-30T05:21:32;19.80;76.00
45785;DHT22;31489;51.404;5.474;2023-07-30T05:23:57;19.70;76.00
45785;DHT22;31489;51.404;5.474;2023-07-30T05:26:23;19.70;76.10
45785;DHT22;31489;51.404;5.474;2023-07-30T05:28:49;19.70;76.10
45785;DHT22;31489;51.404;5.474;2023-07-30T05:31:14;19.70;76.20
45785;DHT22;31489;51.404;5.474;2023-07-30T05:33:40;19.70;76.20
45785;DHT22;31489;51.404;5.474;2023-07-30T05:36:06;19.70;76.40
45785;DHT22;31489;51.404;5.474;2023-07-30T05:38:31;19.70;76.40
45785;DHT22;31489;51.404;5.474;2023-07-30T05:40:57;19.70;76.40
45785;DHT22;31489;51.404;5.474;2023-07-30T05:43:23;19.80;76.60
45785;DHT22;31489;51.404;5.474;2023-07-30T05:45:48;19.80;76.60
45785;DHT22;31489;51.404;5.474;2023-07-30T05:48:14;19.80;76.50
45785;DHT22;31489;51.404;5.474;2023-07-30T05:50:40;19.80;76.50
45785;DHT22;31489;51.404;5.474;2023-07-30T05:53:05;19.80;76.60
45785;DHT22;31489;51.404;5.474;2023-07-30T05:55:31;19.80;76.60
45785;DHT22;31489;51.404;5.474;2023-07-30T05:57:57;19.90;76.60
45785;DHT22;31489;51.404;5.474;2023-07-30T06:00:23;19.90;76.60
45785;DHT22;31489;51.404;5.474;2023-07-30T06:02:49;19.90;76.60
45785;DHT22;31489;51.404;5.474;2023-07-30T06:05:15;19.90;76.70
45785;DHT22;31489;51.404;5.474;2023-07-30T06:07:40;20.00;76.70
45785;DHT22;31489;51.404;5.474;2023-07-30T06:10:09;20.00;76.80
45785;DHT22;31489;51.404;5.474;2023-07-30T06:12:35;20.00;76.80
45785;DHT22;31489;51.404;5.474;2023-07-30T06:15:01;20.00;76.70
45785;DHT22;31489;51.404;5.474;2023-07-30T06:17:26;20.10;76.80
45785;DHT22;31489;51.404;5.474;2023-07-30T06:19:52;20.10;76.70
45785;DHT22;31489;51.404;5.474;2023-07-30T06:22:17;20.10;76.60
45785;DHT22;31489;51.404;5.474;2023-07-30T06:24:43;20.10;76.60
45785;DHT22;31489;51.404;5.474;2023-07-30T06:27:09;20.10;76.40
45785;DHT22;31489;51.404;5.474;2023-07-30T06:29:36;20.20;76.50
45785;DHT22;31489;51.404;5.474;2023-07-30T06:32:01;20.20;76.40
45785;DHT22;31489;51.404;5.474;2023-07-30T06:34:27;20.20;76.60
45785;DHT22;31489;51.404;5.474;2023-07-30T06:36:53;20.20;76.60
45785;DHT22;31489;51.404;5.474;2023-07-30T06:39:18;20.20;76.50
45785;DHT22;31489;51.404;5.474;2023-07-30T06:41:44;20.30;76.50
45785;DHT22;31489;51.404;5.474;2023-07-30T06:44:10;20.30;76.50
45785;DHT22;31489;51.404;5.474;2023-07-30T06:46:35;20.30;77.00
45785;DHT22;31489;51.404;5.474;2023-07-30T06:49:01;20.30;76.30
45785;DHT22;31489;51.404;5.474;2023-07-30T06:51:27;20.40;76.30
45785;DHT22;31489;51.404;5.474;2023-07-30T06:53:52;20.40;76.30
45785;DHT22;31489;51.404;5.474;2023-07-30T06:56:18;20.40;76.30
45785;DHT22;31489;51.404;5.474;2023-07-30T06:58:44;20.40;76.50
45785;DHT22;31489;51.404;5.474;2023-07-30T07:01:09;20.40;76.60
45785;DHT22;31489;51.404;5.474;2023-07-30T07:03:35;20.50;76.30
45785;DHT22;31489;51.404;5.474;2023-07-30T07:06:01;20.50;76.30
45785;DHT22;31489;51.404;5.474;2023-07-30T07:08:26;20.50;76.30
45785;DHT22;31489;51.404;5.474;2023-07-30T07:10:52;20.60;76.30
45785;DHT22;31489;51.404;5.474;2023-07-30T07:13:18;20.60;76.40
45785;DHT22;31489;51.404;5.474;2023-07-30T07:15:44;20.60;76.20
45785;DHT22;31489;51.404;5.474;2023-07-30T07:18:10;20.70;76.00
45785;DHT22;31489;51.404;5.474;2023-07-30T07:20:37;20.70;75.60
45785;DHT22;31489;51.404;5.474;2023-07-30T07:23:03;20.70;75.60
45785;DHT22;31489;51.404;5.474;2023-07-30T07:25:29;20.70;75.40
45785;DHT22;31489;51.404;5.474;2023-07-30T07:27:54;20.70;75.40
45785;DHT22;31489;51.404;5.474;2023-07-30T07:30:20;20.70;75.60
45785;DHT22;31489;51.404;5.474;2023-07-30T07:32:46;20.70;75.70
45785;DHT22;31489;51.404;5.474;2023-07-30T07:35:16;20.70;75.70
45785;DHT22;31489;51.404;5.474;2023-07-30T07:37:41;20.70;76.00
45785;DHT22;31489;51.404;5.474;2023-07-30T07:40:08;20.80;75.80
45785;DHT22;31489;51.404;5.474;2023-07-30T07:42:35;20.80;76.00
45785;DHT22;31489;51.404;5.474;2023-07-30T07:45:00;20.80;76.10
45785;DHT22;31489;51.404;5.474;2023-07-30T07:47:26;20.90;75.80
45785;DHT22;31489;51.404;5.474;2023-07-30T07:49:52;21.00;75.60
45785;DHT22;31489;51.404;5.474;2023-07-30T07:52:18;21.00;75.30
45785;DHT22;31489;51.404;5.474;2023-07-30T07:54:44;21.00;75.30
45785;DHT22;31489;51.404;5.474;2023-07-30T07:57:10;21.10;75.40
45785;DHT22;31489;51.404;5.474;2023-07-30T07:59:36;21.10;75.00
45785;DHT22;31489;51.404;5.474;2023-07-30T08:02:02;21.20;74.20
45785;DHT22;31489;51.404;5.474;2023-07-30T08:04:31;21.20;73.80
45785;DHT22;31489;51.404;5.474;2023-07-30T08:06:56;21.20;74.00
45785;DHT22;31489;51.404;5.474;2023-07-30T08:09:25;21.20;74.00
45785;DHT22;31489;51.404;5.474;2023-07-30T08:11:51;21.30;74.30
45785;DHT22;31489;51.404;5.474;2023-07-30T08:14:16;21.30;74.20
45785;DHT22;31489;51.404;5.474;2023-07-30T08:16:42;21.30;74.70
45785;DHT22;31489;51.404;5.474;2023-07-30T08:19:08;21.40;74.40
45785;DHT22;31489;51.404;5.474;2023-07-30T08:21:33;21.40;74.30
45785;DHT22;31489;51.404;5.474;2023-07-30T08:23:59;21.50;74.00
45785;DHT22;31489;51.404;5.474;2023-07-30T08:26:25;21.60;73.90
45785;DHT22;31489;51.404;5.474;2023-07-30T08:28:50;21.70;73.60
45785;DHT22;31489;51.404;5.474;2023-07-30T08:31:16;21.70;73.40
45785;DHT22;31489;51.404;5.474;2023-07-30T08:33:42;21.70;72.60
45785;DHT22;31489;51.404;5.474;2023-07-30T08:36:07;21.80;72.30
45785;DHT22;31489;51.404;5.474;2023-07-30T08:38:33;21.70;71.90
45785;DHT22;31489;51.404;5.474;2023-07-30T08:40:59;21.70;71.90
45785;DHT22;31489;51.404;5.474;2023-07-30T08:43:25;21.70;72.10
45785;DHT22;31489;51.404;5.474;2023-07-30T08:45:54;21.70;72.50
45785;DHT22;31489;51.404;5.474;2023-07-30T08:48:19;21.70;72.10
45785;DHT22;31489;51.404;5.474;2023-07-30T08:50:45;21.70;72.20
45785;DHT22;31489;51.404;5.474;2023-07-30T08:53:17;21.70;72.40
45785;DHT22;31489;51.404;5.474;2023-07-30T08:55:47;21.80;72.30
45785;DHT22;31489;51.404;5.474;2023-07-30T08:58:13;21.80;71.80
45785;DHT22;31489;51.404;5.474;2023-07-30T09:00:46;21.90;72.10
45785;DHT22;31489;51.404;5.474;2023-07-30T09:03:16;21.90;71.50
45785;DHT22;31489;51.404;5.474;2023-07-30T09:05:42;22.00;71.50
45785;DHT22;31489;51.404;5.474;2023-07-30T09:08:08;22.10;71.60
45785;DHT22;31489;51.404;5.474;2023-07-30T09:10:35;22.10;71.40
45785;DHT22;31489;51.404;5.474;2023-07-30T09:13:02;22.20;71.10
45785;DHT22;31489;51.404;5.474;2023-07-30T09:15:34;22.20;70.90
45785;DHT22;31489;51.404;5.474;2023-07-30T09:18:05;22.30;70.30
45785;DHT22;31489;51.404;5.474;2023-07-30T09:20:39;22.30;70.00
45785;DHT22;31489;51.404;5.474;2023-07-30T09:23:09;22.40;69.20
45785;DHT22;31489;51.404;5.474;2023-07-30T09:25:36;22.40;69.20
45785;DHT22;31489;51.404;5.474;2023-07-30T09:28:05;22.40;68.90
45785;DHT22;31489;51.404;5.474;2023-07-30T09:30:32;22.50;68.70
45785;DHT22;31489;51.404;5.474;2023-07-30T09:33:02;22.50;68.90
45785;DHT22;31489;51.404;5.474;2023-07-30T09:35:27;22.50;68.80
45785;DHT22;31489;51.404;5.474;2023-07-30T09:38:01;22.50;69.10
45785;DHT22;31489;51.404;5.474;2023-07-30T09:40:36;22.50;68.90
45785;DHT22;31489;51.404;5.474;2023-07-30T09:43:04;22.60;69.00
45785;DHT22;31489;51.404;5.474;2023-07-30T09:45:35;22.60;69.90
45785;DHT22;31489;51.404;5.474;2023-07-30T09:48:06;22.70;69.30
45785;DHT22;31489;51.404;5.474;2023-07-30T09:50:33;22.80;69.30
45785;DHT22;31489;51.404;5.474;2023-07-30T09:53:03;22.90;68.90
45785;DHT22;31489;51.404;5.474;2023-07-30T09:55:29;23.00;68.50
45785;DHT22;31489;51.404;5.474;2023-07-30T09:57:55;23.00;68.90
45785;DHT22;31489;51.404;5.474;2023-07-30T10:00:21;23.10;69.10
45785;DHT22;31489;51.404;5.474;2023-07-30T10:02:49;23.20;68.50
45785;DHT22;31489;51.404;5.474;2023-07-30T10:05:19;23.30;67.80
45785;DHT22;31489;51.404;5.474;2023-07-30T10:07:59;23.30;67.70
45785;DHT22;31489;51.404;5.474;2023-07-30T10:10:28;23.40;66.50
45785;DHT22;31489;51.404;5.474;2023-07-30T10:12:56;23.40;67.40
45785;DHT22;31489;51.404;5.474;2023-07-30T10:15:27;23.50;67.20
45785;DHT22;31489;51.404;5.474;2023-07-30T10:17:53;23.60;66.70
45785;DHT22;31489;51.404;5.474;2023-07-30T10:20:25;23.70;66.20
45785;DHT22;31489;51.404;5.474;2023-07-30T10:23:01;23.70;64.70
45785;DHT22;31489;51.404;5.474;2023-07-30T10:25:42;23.80;64.10
45785;DHT22;31489;51.404;5.474;2023-07-30T10:28:28;23.80;63.30
45785;DHT22;31489;51.404;5.474;2023-07-30T10:30:58;23.80;63.20
45785;DHT22;31489;51.404;5.474;2023-07-30T10:33:44;23.80;64.50
45785;DHT22;31489;51.404;5.474;2023-07-30T10:36:10;23.90;63.80
45785;DHT22;31489;51.404;5.474;2023-07-30T10:38:36;24.00;65.80
45785;DHT22;31489;51.404;5.474;2023-07-30T10:41:13;24.00;65.30
45785;DHT22;31489;51.404;5.474;2023-07-30T10:43:49;24.20;63.70
45785;DHT22;31489;51.404;5.474;2023-07-30T10:46:17;24.20;63.80
45785;DHT22;31489;51.404;5.474;2023-07-30T10:48:45;24.20;63.40
45785;DHT22;31489;51.404;5.474;2023-07-30T10:51:16;24.30;63.10
45785;DHT22;31489;51.404;5.474;2023-07-30T10:53:43;24.40;62.20
45785;DHT22;31489;51.404;5.474;2023-07-30T10:56:10;24.40;63.30
45785;DHT22;31489;51.404;5.474;2023-07-30T10:58:37;24.50;63.10
45785;DHT22;31489;51.404;5.474;2023-07-30T11:01:04;24.70;63.10
45785;DHT22;31489;51.404;5.474;2023-07-30T11:03:38;24.90;62.30
45785;DHT22;31489;51.404;5.474;2023-07-30T11:06:04;25.10;61.50
45785;DHT22;31489;51.404;5.474;2023-07-30T11:11:06;25.50;60.80
45785;DHT22;31489;51.404;5.474;2023-07-30T11:13:45;25.70;60.20
45785;DHT22;31489;51.404;5.474;2023-07-30T11:16:14;25.80;59.80
45785;DHT22;31489;51.404;5.474;2023-07-30T11:18:42;26.10;60.20
45785;DHT22;31489;51.404;5.474;2023-07-30T11:21:10;26.20;59.00
45785;DHT22;31489;51.404;5.474;2023-07-30T11:23:37;26.30;58.00
45785;DHT22;31489;51.404;5.474;2023-07-30T11:26:06;26.30;57.50
45785;DHT22;31489;51.404;5.474;2023-07-30T11:28:36;26.40;57.70
45785;DHT22;31489;51.404;5.474;2023-07-30T11:31:17;26.40;57.90
45785;DHT22;31489;51.404;5.474;2023-07-30T11:33:45;26.40;57.90
45785;DHT22;31489;51.404;5.474;2023-07-30T11:36:20;26.50;57.40
45785;DHT22;31489;51.404;5.474;2023-07-30T11:38:55;26.60;56.30
45785;DHT22;31489;51.404;5.474;2023-07-30T11:41:27;26.70;56.80
45785;DHT22;31489;51.404;5.474;2023-07-30T11:43:54;26.80;55.60
45785;DHT22;31489;51.404;5.474;2023-07-30T11:46:20;26.80;56.20
45785;DHT22;31489;51.404;5.474;2023-07-30T11:48:52;26.80;56.00
45785;DHT22;31489;51.404;5.474;2023-07-30T11:51:28;26.70;57.30
45785;DHT22;31489;51.404;5.474;2023-07-30T11:53:56;26.50;57.30
45785;DHT22;31489;51.404;5.474;2023-07-30T11:56:27;26.30;57.00
45785;DHT22;31489;51.404;5.474;2023-07-30T11:59:02;26.10;57.10
45785;DHT22;31489;51.404;5.474;2023-07-30T12:01:31;26.00;57.30
45785;DHT22;31489;51.404;5.474;2023-07-30T12:04:00;25.80;57.50
45785;DHT22;31489;51.404;5.474;2023-07-30T12:06:46;25.80;57.90
45785;DHT22;31489;51.404;5.474;2023-07-30T12:11:53;25.80;57.60
45785;DHT22;31489;51.404;5.474;2023-07-30T12:14:21;25.80;56.90
45785;DHT22;31489;51.404;5.474;2023-07-30T12:16:47;25.80;56.70
45785;DHT22;31489;51.404;5.474;2023-07-30T12:19:13;25.80;55.80
45785;DHT22;31489;51.404;5.474;2023-07-30T12:21:39;25.70;55.50
45785;DHT22;31489;51.404;5.474;2023-07-30T12:24:05;25.60;55.30
45785;DHT22;31489;51.404;5.474;2023-07-30T12:26:31;25.50;57.60
45785;DHT22;31489;51.404;5.474;2023-07-30T12:28:57;25.40;56.80
45785;DHT22;31489;51.404;5.474;2023-07-30T12:31:22;25.20;56.40
45785;DHT22;31489;51.404;5.474;2023-07-30T12:33:48;25.10;56.70
45785;DHT22;31489;51.404;5.474;2023-07-30T12:36:16;24.90;56.80
45785;DHT22;31489;51.404;5.474;2023-07-30T12:38:42;24.80;57.30
45785;DHT22;31489;51.404;5.474;2023-07-30T12:41:08;24.70;57.00
45785;DHT22;31489;51.404;5.474;2023-07-30T12:43:33;24.60;57.30
45785;DHT22;31489;51.404;5.474;2023-07-30T12:45:59;24.50;57.40
45785;DHT22;31489;51.404;5.474;2023-07-30T12:48:25;24.60;57.70
45785;DHT22;31489;51.404;5.474;2023-07-30T12:50:50;24.70;57.60
45785;DHT22;31489;51.404;5.474;2023-07-30T12:53:16;24.80;57.70
45785;DHT22;31489;51.404;5.474;2023-07-30T12:55:42;25.10;56.80
45785;DHT22;31489;51.404;5.474;2023-07-30T12:58:07;25.20;55.80
45785;DHT22;31489;51.404;5.474;2023-07-30T13:00:34;25.40;55.60
45785;DHT22;31489;51.404;5.474;2023-07-30T13:03:00;25.50;55.50
45785;DHT22;31489;51.404;5.474;2023-07-30T13:05:29;25.70;55.20
45785;DHT22;31489;51.404;5.474;2023-07-30T13:07:54;25.80;54.60
45785;DHT22;31489;51.404;5.474;2023-07-30T13:10:20;25.80;54.50
45785;DHT22;31489;51.404;5.474;2023-07-30T13:12:46;25.80;54.00
45785;DHT22;31489;51.404;5.474;2023-07-30T13:15:12;25.90;54.20
45785;DHT22;31489;51.404;5.474;2023-07-30T13:17:38;25.90;54.50
45785;DHT22;31489;51.404;5.474;2023-07-30T13:20:04;25.90;54.60
45785;DHT22;31489;51.404;5.474;2023-07-30T13:22:31;26.00;54.40
45785;DHT22;31489;51.404;5.474;2023-07-30T13:24:56;26.00;54.60
45785;DHT22;31489;51.404;5.474;2023-07-30T13:27:22;26.10;54.60
45785;DHT22;31489;51.404;5.474;2023-07-30T13:29:48;26.10;54.30
45785;DHT22;31489;51.404;5.474;2023-07-30T13:32:14;26.00;53.90
45785;DHT22;31489;51.404;5.474;2023-07-30T13:34:40;26.00;54.20
45785;DHT22;31489;51.404;5.474;2023-07-30T13:37:06;25.90;54.40
45785;DHT22;31489;51.404;5.474;2023-07-30T13:39:32;25.90;55.10
45785;DHT22;31489;51.404;5.474;2023-07-30T13:41:57;26.00;55.40
45785;DHT22;31489;51.404;5.474;2023-07-30T13:44:23;26.10;55.40
45785;DHT22;31489;51.404;5.474;2023-07-30T13:46:49;26.20;55.30
45785;DHT22;31489;51.404;5.474;2023-07-30T13:49:15;26.40;55.40
45785;DHT22;31489;51.404;5.474;2023-07-30T13:51:41;26.50;55.70
45785;DHT22;31489;51.404;5.474;2023-07-30T13:54:07;26.70;54.80
45785;DHT22;31489;51.404;5.474;2023-07-30T13:56:33;26.90;54.50
45785;DHT22;31489;51.404;5.474;2023-07-30T13:58:59;27.10;54.10
45785;DHT22;31489;51.404;5.474;2023-07-30T14:01:25;27.20;53.20
45785;DHT22;31489;51.404;5.474;2023-07-30T14:03:58;27.20;52.50
45785;DHT22;31489;51.404;5.474;2023-07-30T14:06:29;27.30;52.00
45785;DHT22;31489;51.404;5.474;2023-07-30T14:08:58;27.30;51.70
45785;DHT22;31489;51.404;5.474;2023-07-30T14:11:27;27.30;51.80
45785;DHT22;31489;51.404;5.474;2023-07-30T14:13:55;27.40;52.20
45785;DHT22;31489;51.404;5.474;2023-07-30T14:16:21;27.40;52.40
45785;DHT22;31489;51.404;5.474;2023-07-30T14:18:47;27.50;52.00
45785;DHT22;31489;51.404;5.474;2023-07-30T14:21:13;27.50;51.20
45785;DHT22;31489;51.404;5.474;2023-07-30T14:23:39;27.40;51.20
45785;DHT22;31489;51.404;5.474;2023-07-30T14:26:05;27.30;51.10
45785;DHT22;31489;51.404;5.474;2023-07-30T14:28:30;27.20;51.50
45785;DHT22;31489;51.404;5.474;2023-07-30T14:30:56;27.10;51.80
45785;DHT22;31489;51.404;5.474;2023-07-30T14:33:22;27.00;51.40
45785;DHT22;31489;51.404;5.474;2023-07-30T14:35:48;26.90;51.30
45785;DHT22;31489;51.404;5.474;2023-07-30T14:38:13;26.90;51.40
45785;DHT22;31489;51.404;5.474;2023-07-30T14:40:39;26.80;51.70
45785;DHT22;31489;51.404;5.474;2023-07-30T14:43:05;26.80;51.60
45785;DHT22;31489;51.404;5.474;2023-07-30T14:45:30;26.80;51.20
45785;DHT22;31489;51.404;5.474;2023-07-30T14:47:56;26.80;51.60
45785;DHT22;31489;51.404;5.474;2023-07-30T14:50:22;26.90;51.00
45785;DHT22;31489;51.404;5.474;2023-07-30T14:52:48;26.90;51.00
45785;DHT22;31489;51.404;5.474;2023-07-30T14:55:14;27.00;50.90
45785;DHT22;31489;51.404;5.474;2023-07-30T14:57:40;27.00;50.40
45785;DHT22;31489;51.404;5.474;2023-07-30T15:00:06;27.00;49.80
45785;DHT22;31489;51.404;5.474;2023-07-30T15:02:36;27.10;49.50
45785;DHT22;31489;51.404;5.474;2023-07-30T15:05:03;27.10;48.90
45785;DHT22;31489;51.404;5.474;2023-07-30T15:07:29;27.10;49.30
45785;DHT22;31489;51.404;5.474;2023-07-30T15:09:54;27.00;49.40
45785;DHT22;31489;51.404;5.474;2023-07-30T15:12:22;27.00;48.70
45785;DHT22;31489;51.404;5.474;2023-07-30T15:14:48;27.00;48.50
45785;DHT22;31489;51.404;5.474;2023-07-30T15:17:14;27.00;48.50
45785;DHT22;31489;51.404;5.474;2023-07-30T15:19:40;27.00;48.10
45785;DHT22;31489;51.404;5.474;2023-07-30T15:22:06;27.00;47.80
45785;DHT22;31489;51.404;5.474;2023-07-30T15:24:32;26.90;48.00
45785;DHT22;31489;51.404;5.474;2023-07-30T15:26:58;26.90;47.70
45785;DHT22;31489;51.404;5.474;2023-07-30T15:29:26;26.90;47.20
45785;DHT22;31489;51.404;5.474;2023-07-30T15:31:51;26.80;47.40
45785;DHT22;31489;51.404;5.474;2023-07-30T15:34:18;26.80;47.90